Portada
METAR-TAF:

METAR-TAF

Aeroports :

Leticia, Colòmbia

latitud: 04-10S, longitud: 069-57W, altitud: 84 m

Observació

L'informe es va fer fa 46 minuts, a les 12:23 UTC
Vent 2 kt amb direcció variable
Temperatura 25°C
Humitat 94%
Pressió 1012 hPa
Visibilitat 10 km o més
Cel ennuvolat a una alçada de 600 ft

METAR: SKLT 081223Z VRB02KT 9999 BKN006 25/24 Q1012 RMK A2988

Hora: 08:09 (13:09 UTC)

Pronòstic

L'informe es va fer fa 2 hores i 39 minuts, a les 10:30 UTC
Pronòstic vàlid del 08 a les 12 UTC al 09 a les 12 UTC
Vent 2 kt amb direcció variable
Visibilitat 10 km o més
Escasses núvols a una alçada de 1500 ft
Evolucionant progressivament
l' 08 a les 15 UTC al 08 a les 17 UTC
Vent 6 kt del Oest/Sud-Oest
Evolucionant progressivament
l' 09 a les 01 UTC al 09 a les 03 UTC
Vent 2 kt amb direcció variable
Núvols disperses a una alçada de 1000 ft

TAF: SKLT 081030Z 0812/0912 VRB02KT 9999 FEW015 BECMG 0815/0817 24006KT BECMG 0901/0903 VRB02KT SCT010 TX32/0819Z TN23/0810Z

Observacions i pronòstics meteorològics de més de 4000 aeroports (METAR i TAF).

Les estacions disponibles són els punts grocs i vermells al mapa.

Posi el ratolí al punt desitjat per veure el nom de l'estació.

Feu clic per veure les observacions i els pronòstics meteorològics.

Per canviar el mapa: feu clic els botons verds amb una creu de color negre per apropar; al botó verd amb un guió per allunyar la imatge; o en les fletxes verdes per a mapes adjacents.


METAR-TAF: